Time;durP1;ratioP1;P1;durP2;ratioP2;P2;SDS_P1;SDS_P2;PMS_P1;PMS_P2;Temp;Humidity;BMP_temperature;BMP_pressure;BME280_temperature;BME280_humidity;BME280_pressure;Samples;Min_cycle;Max_cycle;Signal;HPM_P1;HPM_P2
2022/04/08 00:01:07;;;;;;;1.70;1.53;;;15.70;53.60;16.90;98879.00;;;;5066865;28;20546;-49
2022/04/08 00:03:32;;;;;;;2.33;1.50;;;15.60;53.60;16.90;98890.00;;;;5066343;28;20194;-50
2022/04/08 00:05:58;;;;;;;1.40;1.30;;;15.70;53.80;16.90;98901.00;;;;5065383;28;20178;-50
2022/04/08 00:08:24;;;;;;;2.20;1.53;;;15.70;53.70;16.90;98903.00;;;;5066898;28;20909;-49
2022/04/08 00:10:50;;;;;;;1.70;1.57;;;15.70;53.60;16.90;98908.00;;;;5066698;28;20264;-50
2022/04/08 00:13:17;;;;;;;1.90;1.40;;;15.70;53.60;16.90;98912.00;;;;5065389;28;20642;-50
2022/04/08 00:15:43;;;;;;;1.70;1.50;;;15.70;53.60;16.90;98918.00;;;;5066506;28;20763;-49
2022/04/08 00:18:09;;;;;;;1.63;1.40;;;15.70;53.60;16.90;98915.00;;;;5066481;28;20173;-50
2022/04/08 00:20:35;;;;;;;1.30;1.20;;;15.60;53.50;16.80;98918.00;;;;5066846;28;20267;-50
2022/04/08 00:23:03;;;;;;;1.70;1.27;;;15.60;53.50;16.80;98918.00;;;;5066322;28;20193;-50
2022/04/08 00:25:29;;;;;;;1.70;1.53;;;15.60;53.50;16.80;98932.00;;;;5066900;28;20173;-50
2022/04/08 00:27:55;;;;;;;1.70;1.50;;;15.60;53.60;16.80;98927.00;;;;5070650;28;20241;-50
2022/04/08 00:30:20;;;;;;;1.60;1.40;;;15.60;53.60;16.80;98929.00;;;;5069198;28;20193;-51
2022/04/08 00:32:46;;;;;;;1.67;1.37;;;15.60;53.50;16.80;98934.00;;;;5067354;28;20180;-50
2022/04/08 00:35:12;;;;;;;1.60;1.50;;;15.60;53.50;16.80;98937.00;;;;5069591;28;20181;-50
2022/04/08 00:37:39;;;;;;;1.80;1.53;;;15.50;53.70;16.80;98946.00;;;;5066541;28;20235;-51
2022/04/08 00:40:06;;;;;;;1.77;1.37;;;15.50;53.70;16.80;98949.00;;;;5066331;28;20193;-49
2022/04/08 00:42:32;;;;;;;1.43;1.33;;;15.40;53.80;16.70;98934.00;;;;5066527;28;20717;-50
2022/04/08 00:44:58;;;;;;;1.83;1.53;;;15.40;53.90;16.70;98960.00;;;;5065976;28;20257;-51
2022/04/08 00:47:24;;;;;;;1.40;1.30;;;15.50;53.80;16.70;98952.00;;;;5065964;28;20224;-49
2022/04/08 00:49:49;;;;;;;1.50;1.40;;;15.50;53.60;16.70;98960.00;;;;5066151;28;20185;-50
2022/04/08 00:52:15;;;;;;;2.50;1.63;;;15.50;53.60;16.70;98962.00;;;;5048088;28;20181;-50
2022/04/08 00:54:41;;;;;;;1.57;1.43;;;15.40;53.60;16.70;98970.00;;;;5065846;28;20234;-50
2022/04/08 00:57:07;;;;;;;1.43;1.17;;;15.40;53.70;16.70;98968.00;;;;5031544;28;20174;-50
2022/04/08 00:59:33;;;;;;;1.27;1.13;;;15.40;53.60;16.70;98961.00;;;;5065795;28;20189;-50
2022/04/08 01:01:58;;;;;;;1.20;1.10;;;15.40;53.70;16.70;98969.00;;;;5064295;28;20569;-51
2022/04/08 01:04:27;;;;;;;1.40;1.30;;;15.40;53.70;16.60;98981.00;;;;5066141;28;20170;-50
2022/04/08 01:06:53;;;;;;;1.37;1.27;;;15.40;53.60;16.60;98979.00;;;;5065906;28;20454;-49
2022/04/08 01:09:18;;;;;;;1.27;1.17;;;15.40;53.50;16.60;98991.00;;;;5065401;28;20181;-50
2022/04/08 01:11:44;;;;;;;1.77;1.27;;;15.40;53.50;16.60;98985.00;;;;5066083;28;20166;-50
2022/04/08 01:14:11;;;;;;;1.10;1.00;;;15.40;53.40;16.40;98990.00;;;;5065766;28;20674;-50
2022/04/08 01:16:37;;;;;;;1.50;1.40;;;15.50;53.50;16.60;99004.00;;;;5067992;28;20170;-51
2022/04/08 01:19:03;;;;;;;2.20;1.20;;;15.40;53.30;16.60;99017.00;;;;5066492;28;20185;-49
2022/04/08 01:21:29;;;;;;;1.40;1.30;;;15.40;53.40;16.60;99021.00;;;;5066109;28;20230;-49
2022/04/08 01:23:55;;;;;;;1.53;1.20;;;15.30;53.50;16.60;99035.00;;;;5065902;28;20205;-49
2022/04/08 01:26:21;;;;;;;1.40;1.30;;;15.30;53.40;16.60;99032.00;;;;5064339;28;20248;-49
2022/04/08 01:28:47;;;;;;;1.30;1.20;;;15.30;53.60;16.60;99038.00;;;;5066248;28;20258;-51
2022/04/08 01:31:13;;;;;;;1.80;1.43;;;15.40;53.60;16.50;99041.00;;;;5064538;28;20662;-49
2022/04/08 01:33:38;;;;;;;1.27;1.17;;;15.40;53.50;16.50;99044.00;;;;5065836;28;20178;-50
2022/04/08 01:36:04;;;;;;;1.43;1.33;;;15.30;53.50;16.50;99036.00;;;;5065387;28;20235;-50
2022/04/08 01:38:30;;;;;;;1.63;1.20;;;15.20;53.50;16.50;99042.00;;;;5067466;28;20241;-50
2022/04/08 01:40:55;;;;;;;1.10;1.00;;;15.30;53.60;16.30;99054.00;;;;5070442;28;20258;-49
2022/04/08 01:43:21;;;;;;;1.90;1.40;;;15.20;53.50;16.50;99056.00;;;;5066392;28;20197;-50
2022/04/08 01:45:47;;;;;;;1.50;1.30;;;15.20;53.50;16.50;99058.00;;;;5065444;28;20200;-51
2022/04/08 01:48:12;;;;;;;1.33;1.23;;;15.30;53.50;16.50;99073.00;;;;5064187;28;20540;-50
2022/04/08 01:50:38;;;;;;;1.30;1.20;;;15.20;53.60;16.50;99058.00;;;;5064685;28;20217;-50
2022/04/08 01:53:04;;;;;;;2.00;1.27;;;15.20;53.70;16.40;99056.00;;;;5065988;28;20174;-50
2022/04/08 01:55:30;;;;;;;1.30;1.20;;;15.20;53.80;16.40;99058.00;;;;5065689;28;20274;-50
2022/04/08 01:57:55;;;;;;;1.40;1.30;;;15.20;53.60;16.40;99072.00;;;;5065454;28;20849;-49
2022/04/08 02:00:21;;;;;;;1.17;1.07;;;15.20;53.60;16.40;99076.00;;;;5063763;28;20276;-51
2022/04/08 02:02:47;;;;;;;1.10;0.93;;;15.20;53.50;16.40;99075.00;;;;5065406;28;20236;-50
2022/04/08 02:05:12;;;;;;;1.33;1.23;;;15.20;53.40;16.40;99076.00;;;;5065290;28;20174;-50
2022/04/08 02:07:38;;;;;;;1.83;1.50;;;15.20;53.30;16.40;99088.00;;;;5065637;28;20178;-50
2022/04/08 02:10:04;;;;;;;1.43;1.20;;;15.20;53.30;16.40;99087.00;;;;5065553;28;20198;-51
2022/04/08 02:12:30;;;;;;;1.20;1.10;;;15.20;53.30;16.20;99085.00;;;;5065884;28;20182;-50
2022/04/08 02:14:56;;;;;;;1.67;1.30;;;15.20;53.40;16.40;99085.00;;;;5065431;28;20189;-49
2022/04/08 02:17:25;;;;;;;1.30;1.20;;;15.20;53.30;16.40;99089.00;;;;5063819;28;20174;-50
2022/04/08 02:19:52;;;;;;;1.17;1.07;;;15.10;53.40;16.40;99089.00;;;;5065354;28;20757;-50
2022/04/08 02:22:18;;;;;;;1.37;1.27;;;15.20;53.50;16.40;99096.00;;;;5068155;28;20201;-50
2022/04/08 02:24:46;;;;;;;1.47;1.37;;;15.10;53.50;16.30;99104.00;;;;5068900;28;20283;-49
2022/04/08 02:27:12;;;;;;;1.77;1.40;;;15.10;53.40;16.30;99103.00;;;;5069460;28;20201;-49
2022/04/08 02:29:38;;;;;;;1.23;1.00;;;15.10;53.40;16.30;99105.00;;;;5068801;28;20217;-50
2022/04/08 02:32:04;;;;;;;1.33;1.30;;;15.10;53.50;16.30;99016.00;;;;5068878;28;20706;-50
2022/04/08 02:34:30;;;;;;;1.10;1.00;;;15.10;53.50;16.30;99106.00;;;;5068034;28;20209;-51
2022/04/08 02:36:56;;;;;;;1.63;1.40;;;15.10;53.40;16.30;99115.00;;;;5069693;28;20270;-49
2022/04/08 02:39:21;;;;;;;1.10;1.00;;;15.10;53.40;16.30;99107.00;;;;5068891;28;20197;-50
2022/04/08 02:41:47;;;;;;;1.60;1.33;;;15.10;53.40;16.30;99109.00;;;;5067258;28;20200;-49
2022/04/08 02:44:13;;;;;;;1.53;1.40;;;15.10;53.30;16.30;99111.00;;;;5068045;28;20252;-49
2022/04/08 02:46:39;;;;;;;1.10;1.00;;;15.10;53.40;16.30;99117.00;;;;5069280;28;20166;-49
2022/04/08 02:49:04;;;;;;;1.20;1.10;;;15.10;53.40;16.30;99126.00;;;;5070276;28;20712;-50
2022/04/08 02:51:30;;;;;;;1.40;1.30;;;15.00;53.30;16.30;99129.00;;;;5068143;28;20181;-50
2022/04/08 02:53:56;;;;;;;1.43;1.17;;;15.10;53.40;16.20;99129.00;;;;5068231;28;20181;-50
2022/04/08 02:56:21;;;;;;;2.10;1.47;;;15.10;53.40;16.20;99134.00;;;;5068252;28;20542;-50
2022/04/08 02:58:48;;;;;;;1.57;1.40;;;15.00;53.30;16.20;99137.00;;;;5068203;28;20561;-50
2022/04/08 03:01:15;;;;;;;2.70;1.20;;;15.00;53.30;16.20;99130.00;;;;5068196;28;20213;-48
2022/04/08 03:03:41;;;;;;;6.67;1.27;;;15.10;54.40;16.20;99133.00;;;;5063162;28;20697;-49
2022/04/08 03:06:07;;;;;;;2.33;1.30;;;15.10;53.50;16.20;99124.00;;;;5058989;28;20178;-50
2022/04/08 03:08:33;;;;;;;2.33;1.40;;;15.00;53.50;16.20;99136.00;;;;5068085;28;20598;-49
2022/04/08 03:10:58;;;;;;;1.80;1.33;;;15.00;53.90;16.20;99127.00;;;;5067925;28;20239;-49
2022/04/08 03:13:24;;;;;;;3.70;1.30;;;14.90;53.70;16.20;99128.00;;;;5066183;28;20181;-49
2022/04/08 03:15:50;;;;;;;2.77;1.50;;;15.00;53.80;16.20;99129.00;;;;5067743;28;20586;-50
2022/04/08 03:18:16;;;;;;;2.67;1.40;;;15.00;53.70;16.20;99134.00;;;;5067202;28;20665;-50
2022/04/08 03:20:42;;;;;;;1.50;1.27;;;15.00;53.70;16.20;99126.00;;;;5067393;28;20428;-49
2022/04/08 03:23:07;;;;;;;1.53;1.10;;;15.00;53.60;16.20;99061.00;;;;5067492;28;20185;-49
2022/04/08 03:25:34;;;;;;;1.37;1.17;;;15.00;53.60;16.10;99119.00;;;;5067507;28;20218;-49
2022/04/08 03:28:00;;;;;;;1.83;1.20;;;15.00;53.60;16.10;99133.00;;;;5067283;28;20466;-49
2022/04/08 03:30:31;;;;;;;1.87;1.23;;;15.00;53.60;16.10;99134.00;;;;5067498;28;20197;-50
2022/04/08 03:32:57;;;;;;;1.27;1.17;;;15.00;53.60;16.10;99135.00;;;;5067235;28;20481;-49
2022/04/08 03:35:22;;;;;;;2.27;1.37;;;14.90;53.50;16.10;99131.00;;;;5067218;28;20166;-50
2022/04/08 03:37:48;;;;;;;2.13;1.00;;;14.90;53.50;16.10;99136.00;;;;5065145;28;20615;-49
2022/04/08 03:40:14;;;;;;;1.70;1.30;;;14.90;53.60;16.10;99137.00;;;;5066587;28;20193;-50
2022/04/08 03:42:40;;;;;;;1.33;1.20;;;14.90;53.50;16.10;99141.00;;;;5066812;28;20206;-49
2022/04/08 03:45:06;;;;;;;3.57;1.40;;;14.90;53.50;16.10;99145.00;;;;5067233;28;20174;-49
2022/04/08 03:47:32;;;;;;;2.00;1.30;;;14.90;53.50;15.90;99156.00;;;;5066908;28;20174;-49
2022/04/08 03:49:57;;;;;;;2.20;1.33;;;14.90;53.60;16.10;99151.00;;;;5066954;28;20197;-50
2022/04/08 03:52:23;;;;;;;2.90;1.30;;;14.90;53.50;16.00;99153.00;;;;5066665;28;20170;-49
2022/04/08 03:54:49;;;;;;;3.50;1.50;;;14.80;53.70;16.10;99161.00;;;;5065869;28;20309;-49
2022/04/08 03:57:15;;;;;;;2.23;1.23;;;14.80;53.90;16.00;99167.00;;;;5067011;28;20178;-50
2022/04/08 03:59:41;;;;;;;3.63;1.37;;;14.80;53.90;16.00;99163.00;;;;5066999;28;20197;-50
2022/04/08 04:02:07;;;;;;;1.77;1.30;;;14.80;53.80;16.00;99182.00;;;;5067514;28;20189;-50
2022/04/08 04:04:34;;;;;;;2.83;1.50;;;14.80;53.80;16.00;99182.00;;;;5069568;28;20714;-48
2022/04/08 04:06:59;;;;;;;4.73;1.90;;;14.80;53.80;16.00;99185.00;;;;5066727;28;20178;-49
2022/04/08 04:09:26;;;;;;;5.63;1.77;;;14.80;53.80;16.00;99182.00;;;;5066604;28;20223;-49
2022/04/08 04:11:52;;;;;;;4.70;1.97;;;14.80;53.80;16.00;99192.00;;;;5066355;28;20173;-49
2022/04/08 04:14:17;;;;;;;7.63;1.90;;;14.80;53.80;16.00;99189.00;;;;5066992;28;20540;-51
2022/04/08 04:16:43;;;;;;;4.73;1.80;;;14.80;53.80;16.00;99196.00;;;;5066710;28;20170;-50
2022/04/08 04:19:09;;;;;;;6.50;1.87;;;14.80;54.10;16.00;99189.00;;;;5066165;28;20174;-49
2022/04/08 04:21:35;;;;;;;5.37;1.80;;;14.70;54.50;16.00;99194.00;;;;5065499;28;20169;-51
2022/04/08 04:24:00;;;;;;;3.87;1.80;;;14.60;54.40;15.90;99201.00;;;;5064939;28;20539;-49
2022/04/08 04:26:26;;;;;;;5.93;2.10;;;14.60;54.80;15.90;99219.00;;;;5065936;28;20166;-48
2022/04/08 04:28:52;;;;;;;5.80;1.87;;;14.50;54.90;15.90;99201.00;;;;5066731;28;20154;-49
2022/04/08 04:31:17;;;;;;;6.20;1.80;;;14.50;54.80;15.90;99205.00;;;;5066282;28;20701;-50
2022/04/08 04:33:43;;;;;;;3.53;1.80;;;14.50;54.90;15.80;99208.00;;;;5066071;28;20853;-50
2022/04/08 04:36:11;;;;;;;3.97;1.90;;;14.50;55.10;15.80;99197.00;;;;5065112;28;20181;-49
2022/04/08 04:38:36;;;;;;;4.33;1.67;;;14.50;54.90;15.80;99197.00;;;;5065274;28;20154;-50
2022/04/08 04:41:02;;;;;;;4.07;1.70;;;14.50;54.90;15.80;99193.00;;;;5066323;28;20658;-50
2022/04/08 04:43:28;;;;;;;2.97;1.50;;;14.50;54.80;15.80;99199.00;;;;5051321;28;20202;-49
2022/04/08 04:45:53;;;;;;;5.30;1.80;;;14.50;54.80;15.80;99197.00;;;;5065389;28;20201;-50
2022/04/08 04:48:19;;;;;;;3.40;1.77;;;14.50;54.60;15.80;99195.00;;;;5065965;28;20792;-50
2022/04/08 04:50:46;;;;;;;2.63;1.43;;;14.60;54.40;15.80;99196.00;;;;5066443;28;20543;-49
2022/04/08 04:53:12;;;;;;;2.27;1.60;;;14.60;54.40;15.80;99127.00;;;;5065818;28;20165;-49
2022/04/08 04:55:38;;;;;;;4.37;1.80;;;14.60;54.40;15.80;99192.00;;;;5064678;28;20708;-50
2022/04/08 04:58:03;;;;;;;2.70;1.67;;;14.60;54.30;15.80;99196.00;;;;5065817;28;20710;-49
2022/04/08 05:00:29;;;;;;;4.30;1.70;;;14.60;54.20;15.80;99145.00;;;;5065890;28;20205;-50
2022/04/08 05:02:55;;;;;;;2.23;1.80;;;14.60;54.20;15.80;99194.00;;;;5065461;28;20346;-50
2022/04/08 05:05:22;;;;;;;3.43;1.50;;;14.60;54.30;15.80;99188.00;;;;5065797;28;20538;-51
2022/04/08 05:07:47;;;;;;;4.63;1.80;;;14.60;54.20;15.80;99191.00;;;;5061181;28;20173;-50
2022/04/08 05:10:13;;;;;;;2.30;1.67;;;14.60;54.20;15.80;99193.00;;;;5066071;28;20854;-50
2022/04/08 05:12:39;;;;;;;3.93;1.40;;;14.60;54.30;15.70;99196.00;;;;5064003;28;20381;-51
2022/04/08 05:15:06;;;;;;;1.63;1.50;;;14.60;54.20;15.80;99196.00;;;;5065959;28;20173;-49
2022/04/08 05:17:36;;;;;;;3.17;1.60;;;14.60;54.20;15.70;99203.00;;;;5065473;28;20184;-50
2022/04/08 05:20:08;;;;;;;2.40;1.70;;;14.60;54.20;15.80;99208.00;;;;5065803;28;20205;-50
2022/04/08 05:22:34;;;;;;;2.17;1.30;;;14.60;54.10;15.70;99211.00;;;;5065483;28;20209;-49
2022/04/08 05:25:00;;;;;;;1.37;1.10;;;14.60;54.20;15.70;99215.00;;;;5065899;28;20169;-50
2022/04/08 05:27:27;;;;;;;1.47;1.37;;;14.60;54.20;15.70;99206.00;;;;5070111;28;20184;-49
2022/04/08 05:29:52;;;;;;;2.37;1.40;;;14.60;54.20;15.70;99203.00;;;;5070651;28;20225;-50
2022/04/08 05:32:18;;;;;;;4.00;1.80;;;14.50;54.10;15.70;99210.00;;;;5066864;28;20170;-49
2022/04/08 05:34:44;;;;;;;9.17;1.77;;;14.50;54.70;15.70;99209.00;;;;5066127;28;20571;-50
2022/04/08 05:37:12;;;;;;;2.00;1.60;;;14.40;55.00;15.70;99206.00;;;;5065688;28;20183;-50
2022/04/08 05:39:38;;;;;;;5.83;1.90;;;14.40;55.20;15.70;99200.00;;;;5065739;28;20224;-51
2022/04/08 05:42:05;;;;;;;2.63;1.60;;;14.50;55.20;15.70;99199.00;;;;5065629;28;20254;-49
2022/04/08 05:44:31;;;;;;;2.10;1.77;;;14.60;55.30;15.70;99204.00;;;;5068943;28;20186;-48
2022/04/08 05:46:57;;;;;;;1.83;1.40;;;14.80;55.20;15.80;99201.00;;;;5065339;28;20253;-49
2022/04/08 05:49:23;;;;;;;2.53;1.63;;;15.10;54.90;15.90;99198.00;;;;5065433;28;20200;-49
2022/04/08 05:51:48;;;;;;;2.43;1.60;;;15.30;54.50;16.00;99215.00;;;;5065238;28;20206;-49
2022/04/08 05:54:14;;;;;;;2.10;1.40;;;15.70;54.30;16.10;99208.00;;;;5065615;28;20239;-49
2022/04/08 05:56:40;;;;;;;3.10;1.47;;;15.90;53.80;16.30;99213.00;;;;5068830;28;20779;-50
2022/04/08 05:59:05;;;;;;;1.80;1.37;;;16.30;53.60;16.50;99200.00;;;;5070070;28;20162;-50
2022/04/08 06:01:31;;;;;;;2.80;1.60;;;16.60;53.20;16.70;99195.00;;;;5069043;28;20543;-49
2022/04/08 06:03:57;;;;;;;3.03;1.60;;;16.80;52.90;16.90;99198.00;;;;5068898;28;20276;-49
2022/04/08 06:06:23;;;;;;;1.60;1.43;;;17.20;52.60;17.10;99194.00;;;;5069068;28;20180;-50
2022/04/08 06:08:49;;;;;;;2.00;1.50;;;17.30;52.40;17.30;99191.00;;;;5069342;28;20579;-50
2022/04/08 06:11:15;;;;;;;4.47;1.60;;;17.50;52.20;17.40;99191.00;;;;5069082;28;20189;-48
2022/04/08 06:13:40;;;;;;;3.77;1.60;;;17.60;52.20;17.60;99190.00;;;;5069140;28;20174;-49
2022/04/08 06:16:06;;;;;;;4.90;1.70;;;17.80;52.10;17.70;99189.00;;;;5068811;28;20547;-48
2022/04/08 06:18:33;;;;;;;1.73;1.63;;;17.90;52.20;17.80;99188.00;;;;5068861;28;20180;-49
2022/04/08 06:21:00;;;;;;;3.00;1.80;;;17.90;52.20;17.90;99119.00;;;;5068870;28;20212;-49
2022/04/08 06:23:26;;;;;;;2.40;1.97;;;17.90;52.30;18.00;99185.00;;;;5068391;28;20278;-49
2022/04/08 06:25:51;;;;;;;3.50;1.80;;;17.90;52.50;18.10;99183.00;;;;5069958;28;20215;-49
2022/04/08 06:28:17;;;;;;;2.27;1.37;;;18.10;52.50;18.20;99171.00;;;;5069757;28;20177;-49
2022/04/08 06:30:43;;;;;;;2.40;1.70;;;18.20;52.50;18.30;99181.00;;;;5069046;28;20193;-49
2022/04/08 06:33:09;;;;;;;2.00;1.80;;;18.20;52.70;18.30;99168.00;;;;5068171;28;20181;-48
2022/04/08 06:35:34;;;;;;;2.37;1.83;;;18.20;52.90;18.40;99171.00;;;;5068683;28;20186;-48
2022/04/08 06:38:02;;;;;;;4.77;2.00;;;18.20;53.10;18.50;99181.00;;;;5069272;28;20182;-49
2022/04/08 06:40:28;;;;;;;1.97;1.47;;;18.30;54.60;18.50;99181.00;;;;5068449;28;20691;-51
2022/04/08 06:42:59;;;;;;;3.27;1.70;;;18.40;54.90;18.60;99187.00;;;;5067969;28;20251;-49
2022/04/08 06:45:26;;;;;;;2.80;1.80;;;18.40;55.10;18.70;99177.00;;;;5068630;28;20156;-51
2022/04/08 06:47:52;;;;;;;2.30;1.80;;;18.40;55.80;18.70;99174.00;;;;5067902;28;20661;-48
2022/04/08 06:50:18;;;;;;;1.83;1.50;;;18.50;55.90;18.80;99181.00;;;;5068556;28;20185;-49
2022/04/08 06:52:43;;;;;;;3.83;1.83;;;18.50;56.00;18.80;99183.00;;;;5067893;28;20175;-49
2022/04/08 06:55:09;;;;;;;2.93;2.10;;;18.60;56.30;18.90;99175.00;;;;5068134;28;20331;-49
2022/04/08 06:57:35;;;;;;;2.70;2.07;;;18.60;56.50;18.90;99184.00;;;;5067595;28;20653;-50
2022/04/08 07:00:04;;;;;;;3.17;1.70;;;18.50;56.70;18.90;99182.00;;;;5067040;28;20202;-49
2022/04/08 07:02:30;;;;;;;3.70;2.10;;;18.50;56.40;18.90;99177.00;;;;5068058;28;20199;-50
2022/04/08 07:04:55;;;;;;;3.17;2.00;;;18.50;56.10;18.90;99173.00;;;;5068023;28;20154;-50
2022/04/08 07:07:21;;;;;;;2.73;2.00;;;18.50;56.20;18.90;99168.00;;;;5067366;28;20168;-49
2022/04/08 07:09:47;;;;;;;3.00;2.20;;;18.40;56.10;18.90;99167.00;;;;5067999;28;20193;-49
2022/04/08 07:12:13;;;;;;;2.53;1.70;;;18.40;56.10;18.90;99159.00;;;;5067567;28;20707;-50
2022/04/08 07:14:38;;;;;;;3.30;2.07;;;18.30;56.20;18.90;99151.00;;;;5067667;28;20173;-49
2022/04/08 07:17:04;;;;;;;2.97;2.07;;;18.30;56.40;18.90;99151.00;;;;5071140;28;20204;-51
2022/04/08 07:19:30;;;;;;;3.37;2.30;;;18.30;56.50;18.90;99151.00;;;;5067996;28;20278;-50
2022/04/08 07:21:57;;;;;;;2.80;2.20;;;18.30;56.50;18.90;99141.00;;;;5067618;28;20180;-50
2022/04/08 07:24:22;;;;;;;4.57;2.43;;;18.20;56.70;18.90;99147.00;;;;5067466;28;20203;-50
2022/04/08 07:26:48;;;;;;;6.50;2.50;;;18.20;57.10;18.90;99153.00;;;;5067206;28;20171;-50
2022/04/08 07:29:14;;;;;;;5.60;2.47;;;18.20;57.30;18.90;99147.00;;;;5067402;28;20190;-49
2022/04/08 07:31:39;;;;;;;6.60;2.73;;;18.20;57.40;18.80;99140.00;;;;5066813;28;20181;-50
2022/04/08 07:34:05;;;;;;;6.27;3.07;;;18.20;57.40;18.80;99145.00;;;;5065496;28;20174;-49
2022/04/08 07:36:31;;;;;;;7.23;2.77;;;18.10;57.70;18.80;99152.00;;;;5067473;28;20217;-49
2022/04/08 07:38:56;;;;;;;9.97;4.70;;;18.10;57.80;18.80;99161.00;;;;5066516;28;20180;-49
2022/04/08 07:41:22;;;;;;;7.30;4.33;;;18.10;58.00;18.80;99153.00;;;;5067135;28;20207;-49
2022/04/08 07:43:50;;;;;;;4.47;4.00;;;18.10;57.70;18.80;99147.00;;;;5066389;28;20202;-50
2022/04/08 07:46:15;;;;;;;7.07;3.80;;;18.10;57.60;18.80;99156.00;;;;5066032;28;20175;-50
2022/04/08 07:48:41;;;;;;;7.17;3.80;;;18.10;57.30;18.80;99156.00;;;;5066072;28;20255;-49
2022/04/08 07:51:07;;;;;;;6.13;3.70;;;18.00;57.20;18.70;99148.00;;;;5066761;28;20772;-49
2022/04/08 07:53:32;;;;;;;7.33;3.57;;;18.00;57.30;18.70;99147.00;;;;5065817;28;20182;-49
2022/04/08 07:55:58;;;;;;;7.13;3.27;;;18.00;57.60;18.70;99143.00;;;;4982929;28;20179;-49
2022/04/08 07:58:24;;;;;;;10.10;3.50;;;17.90;58.00;18.70;99146.00;;;;5067236;28;20183;-50
2022/04/08 08:00:53;;;;;;;5.73;3.17;;;17.90;57.60;18.60;99149.00;;;;5069357;28;20712;-49
2022/04/08 08:03:19;;;;;;;5.67;2.83;;;17.90;57.80;18.60;99147.00;;;;5066846;28;20342;-49
2022/04/08 08:05:45;;;;;;;6.73;2.80;;;17.80;57.50;18.60;99148.00;;;;5066621;28;20404;-49
2022/04/08 08:08:11;;;;;;;5.20;3.20;;;17.80;57.30;18.60;99148.00;;;;5067126;28;20548;-49
2022/04/08 08:10:36;;;;;;;3.80;2.70;;;17.70;57.30;18.60;99149.00;;;;5066861;28;20196;-50
2022/04/08 08:13:02;;;;;;;5.77;2.73;;;17.70;57.20;18.50;99144.00;;;;5066527;28;20234;-50
2022/04/08 08:15:30;;;;;;;2.83;2.43;;;17.70;57.20;18.50;99148.00;;;;5066055;28;20174;-48
2022/04/08 08:17:57;;;;;;;5.30;2.60;;;17.70;57.30;18.50;99144.00;;;;5064868;28;20186;-49
2022/04/08 08:20:23;;;;;;;4.37;2.50;;;17.60;57.30;18.50;99149.00;;;;5064672;28;20193;-49
2022/04/08 08:22:48;;;;;;;5.13;2.50;;;17.60;57.30;18.40;99137.00;;;;5066242;28;20205;-49
2022/04/08 08:25:14;;;;;;;7.43;2.40;;;17.50;57.20;18.40;99139.00;;;;5066444;28;20165;-48
2022/04/08 08:27:44;;;;;;;4.73;2.57;;;17.60;57.30;18.40;99134.00;;;;5064769;28;20174;-53
2022/04/08 08:30:12;;;;;;;2.93;2.30;;;17.50;57.30;18.40;99136.00;;;;5066135;28;20191;-49
2022/04/08 08:32:44;;;;;;;3.17;2.43;;;17.50;57.30;18.30;99136.00;;;;5066470;28;20615;-48
2022/04/08 08:35:12;;;;;;;3.37;2.10;;;17.50;57.30;18.30;99137.00;;;;5066805;28;20506;-49
2022/04/08 08:37:38;;;;;;;2.93;2.20;;;17.40;57.20;18.30;99135.00;;;;5065954;28;20209;-49
2022/04/08 08:40:05;;;;;;;4.17;2.50;;;17.40;57.20;18.30;99143.00;;;;5066330;28;20194;-49
2022/04/08 08:42:30;;;;;;;2.83;2.20;;;17.40;57.20;18.30;99134.00;;;;5065612;28;20697;-49
2022/04/08 08:44:56;;;;;;;4.50;2.10;;;17.40;57.30;18.30;99135.00;;;;5031978;28;20170;-49
2022/04/08 08:47:22;;;;;;;4.23;2.07;;;17.30;57.10;18.20;99123.00;;;;5065908;28;20438;-49
2022/04/08 08:49:49;;;;;;;2.60;2.00;;;17.30;57.20;18.20;99127.00;;;;5047932;28;20193;-50
2022/04/08 08:52:16;;;;;;;3.20;1.90;;;17.30;57.20;18.20;99119.00;;;;5066015;28;20696;-50
2022/04/08 08:54:42;;;;;;;4.00;2.10;;;17.20;57.10;18.20;99118.00;;;;5064699;28;20161;-50
2022/04/08 08:57:09;;;;;;;2.30;2.00;;;17.20;57.20;18.10;99124.00;;;;5065601;28;20219;-50
2022/04/08 08:59:36;;;;;;;4.80;1.90;;;17.10;57.10;18.10;99120.00;;;;5071267;28;20280;-49
2022/04/08 09:02:02;;;;;;;5.47;2.10;;;17.10;57.10;18.10;99124.00;;;;5066191;28;20186;-49
2022/04/08 09:04:29;;;;;;;8.60;2.13;;;17.10;57.40;18.10;99112.00;;;;5066178;28;20198;-50
2022/04/08 09:06:55;;;;;;;5.17;2.13;;;17.10;57.80;18.10;99099.00;;;;5065846;28;20178;-50
2022/04/08 09:09:30;;;;;;;4.00;2.00;;;17.10;57.80;18.10;99100.00;;;;4970765;28;20319;-50
2022/04/08 09:12:08;;;;;;;4.00;1.90;;;17.00;57.60;18.00;99094.00;;;;5065740;28;20181;-48
2022/04/08 09:14:35;;;;;;;7.57;2.10;;;17.10;57.80;18.00;99091.00;;;;5064994;28;20177;-51
2022/04/08 09:17:01;;;;;;;2.20;1.90;;;17.00;57.70;18.00;99092.00;;;;5060015;28;20186;-50
2022/04/08 09:19:32;;;;;;;4.10;1.87;;;17.00;57.80;18.00;99087.00;;;;5073529;28;20193;-51
2022/04/08 09:21:58;;;;;;;4.60;1.90;;;17.00;57.80;18.00;99075.00;;;;5075002;28;20679;-50
2022/04/08 09:24:24;;;;;;;5.37;2.40;;;17.00;57.90;18.00;99068.00;;;;5067796;28;20278;-51
2022/04/08 09:26:54;;;;;;;4.27;2.50;;;17.00;58.10;18.00;99066.00;;;;5067772;28;20262;-50
2022/04/08 09:29:21;;;;;;;5.33;2.40;;;16.90;58.40;17.90;99056.00;;;;5068581;28;20768;-50
2022/04/08 09:31:51;;;;;;;5.40;2.27;;;16.90;58.60;17.90;99060.00;;;;5072023;28;20177;-50
2022/04/08 09:34:17;;;;;;;4.40;3.30;;;16.90;58.40;17.90;99054.00;;;;5072376;28;20562;-51
2022/04/08 09:36:43;;;;;;;6.80;3.53;;;16.90;59.10;17.90;99050.00;;;;5070894;28;20170;-50
2022/04/08 09:39:12;;;;;;;5.10;3.17;;;16.90;59.10;17.90;99039.00;;;;5073061;28;20193;-52
2022/04/08 09:41:39;;;;;;;6.17;3.10;;;16.90;59.10;17.90;99030.00;;;;5072625;28;20166;-50
2022/04/08 09:44:09;;;;;;;6.13;2.97;;;16.90;59.20;17.90;99030.00;;;;5073082;28;20201;-51
2022/04/08 09:46:36;;;;;;;6.93;3.20;;;16.90;59.40;17.90;99029.00;;;;5072234;28;20181;-49
2022/04/08 09:49:04;;;;;;;10.40;3.37;;;16.90;60.50;17.90;99031.00;;;;5072189;28;20195;-50
2022/04/08 09:51:29;;;;;;;8.63;3.20;;;16.90;61.20;17.90;99034.00;;;;5072365;28;20150;-50
2022/04/08 09:54:00;;;;;;;8.50;3.00;;;16.90;60.70;17.90;99035.00;;;;5071135;28;20504;-50
2022/04/08 09:56:27;;;;;;;7.00;3.10;;;16.90;60.70;17.90;99020.00;;;;5072178;28;20174;-50
2022/04/08 09:59:05;;;;;;;6.43;2.70;;;16.90;60.70;17.80;99017.00;;;;5072296;28;20177;-49
2022/04/08 10:01:31;;;;;;;5.70;2.70;;;16.90;60.30;17.80;99024.00;;;;5054797;28;20224;-49
2022/04/08 10:03:56;;;;;;;5.50;2.73;;;16.80;60.10;17.80;99013.00;;;;5070923;28;20205;-50
2022/04/08 10:06:24;;;;;;;4.37;2.50;;;16.80;59.90;17.80;99006.00;;;;5070708;28;20158;-50
2022/04/08 10:08:50;;;;;;;5.10;2.80;;;16.90;60.00;17.80;99023.00;;;;4981400;28;20643;-50
2022/04/08 10:11:22;;;;;;;4.93;2.50;;;16.80;59.80;17.80;99024.00;;;;5072500;28;20219;-50
2022/04/08 10:14:21;;;;;;;3.33;2.30;;;16.80;59.70;17.80;99025.00;;;;5071623;28;20173;-51
2022/04/08 10:16:51;;;;;;;5.50;2.60;;;16.70;59.40;17.80;99032.00;;;;5071784;28;20158;-50
2022/04/08 10:19:17;;;;;;;3.37;2.10;;;16.70;59.40;17.80;99014.00;;;;5054968;28;20237;-50
2022/04/08 10:21:43;;;;;;;5.00;2.37;;;16.70;59.20;17.80;99025.00;;;;5070336;28;20166;-51
2022/04/08 10:24:10;;;;;;;4.50;2.20;;;16.70;59.10;17.70;99036.00;;;;5071829;28;20247;-49
2022/04/08 10:26:37;;;;;;;4.00;2.30;;;16.70;59.10;17.70;99029.00;;;;5070062;28;20640;-49
2022/04/08 10:29:09;;;;;;;7.57;2.50;;;16.70;59.10;17.70;99035.00;;;;5071939;28;20173;-50
2022/04/08 10:31:35;;;;;;;3.30;2.37;;;16.70;59.10;17.70;99035.00;;;;5072864;28;20199;-49
2022/04/08 10:34:01;;;;;;;4.77;2.30;;;16.60;58.90;17.70;99034.00;;;;5071988;28;20222;-50
2022/04/08 10:36:35;;;;;;;3.87;2.43;;;16.60;58.90;17.70;99032.00;;;;5071366;28;20649;-50
2022/04/08 10:39:22;;;;;;;3.63;2.27;;;16.70;59.00;17.70;99034.00;;;;5071683;28;20261;-50
2022/04/08 10:41:54;;;;;;;3.30;2.30;;;16.60;58.70;17.70;99027.00;;;;5071676;28;20173;-49
2022/04/08 10:44:39;;;;;;;5.77;2.20;;;16.60;58.90;17.70;99028.00;;;;5072213;28;20190;-50
2022/04/08 10:47:29;;;;;;;6.23;2.20;;;16.60;59.10;17.70;99020.00;;;;5071238;28;20296;-50
2022/04/08 10:50:07;;;;;;;3.93;2.13;;;16.60;59.00;17.70;99015.00;;;;5070238;28;20186;-51
2022/04/08 10:52:39;;;;;;;4.00;2.17;;;16.60;58.90;17.70;99010.00;;;;5071519;28;20158;-49